BLKO2: Chikashia River, Blackwell, OK

Data processed at Fri Dec 08 2017 23:36


All information presented herein is the property of the government of the United States of America and may be revised or deleted at any time without prior notice.
Dissemination of this information without the expressed written consent of the Public Affairs Office, Tulsa District U.S. Army Corps of Engineers is strictly prohibited.
These data are gathered electronically and, as presented, have not undergone any form of quality control. These data are not guaranteed to be valid or correct.
Go to home page.
Go to station list.

Upstream stations:

Downstream station:
Previous Day
Next Day
Current Day
    
SHEF ID:       BLKO2     Chikaskia River near Blackwell,
STATION TYPE:  

               PRECIP     STAGE  STAGE(2)  RIV-FLOW  BAT-LOAD
                   in        ft        ft       cfs      volt
              Ccp-Rev   Ccp-Rev   Ccp-Rev   Ccp-Rev   Ccp-Rev
(US/Central)
12/06 00:00      0.00      2.52      2.46       110     12.49
12/06 01:00      0.00      2.52      2.46       110     12.49
12/06 02:00      0.00      2.52      2.46       110     12.49
12/06 03:00      0.00      2.51      2.46       108     12.41
12/06 04:00      0.00      2.50      2.47       105     12.41
12/06 05:00      0.00      2.50      2.47       105     12.41
12/06 06:00      0.00      2.49      2.47       103     12.33
12/06 07:00      0.00      2.49      2.46       103     12.33
12/06 08:00      0.00      2.50      2.47       105     12.33
12/06 09:00      0.00      2.57      2.46       121     13.53
12/06 10:00      0.00      2.60      2.46       127     13.60
12/06 11:00      0.00      2.62      2.46       132     13.68
12/06 12:00      0.00      2.62      2.47       132     14.00
12/06 13:00      0.00      2.62      2.47       132     14.08
12/06 14:00      0.00      2.62      2.47       132     13.84
12/06 15:00      0.00      2.61      2.47       130     13.60
12/06 16:00      0.00      2.57      2.48       121     13.60
12/06 17:00      0.00      2.54      2.48       114     13.37
12/06 18:00      0.00      2.53      2.47       112     12.73
12/06 19:00      0.00      2.52      2.47       110     12.65
12/06 20:00      0.00      2.51      2.47       108     12.57
12/06 21:00      0.00      2.51      2.46       108     12.57
12/06 22:00      0.00      2.51      2.45       108     12.57
12/06 23:00      0.00      2.51      2.45       108     12.57